Time;durP1;ratioP1;P1;durP2;ratioP2;P2;SDS_P1;SDS_P2;PMS_P1;PMS_P2;Temp;Humidity;BMP_temperature;BMP_pressure;BME280_temperature;BME280_humidity;BME280_pressure;Samples;Min_cycle;Max_cycle;Signal;HPM_P1;HPM_P2
2022/05/05 00:04:22;;;;;;;5.23;4.83;;;;;;;;;;12531545;28;20143;-77
2022/05/05 00:16:44;;;;;;;5.18;4.78;;;;;;;;;;12530270;28;20063;-77
2022/05/05 00:22:45;;;;;;;5.47;5.00;;;;;;;;;;12547991;28;20056;-78
2022/05/05 00:28:47;;;;;;;5.47;4.97;;;;;;;;;;12513140;28;20025;-78
2022/05/05 00:34:49;;;;;;;2.93;2.63;;;;;;;;;;12547891;28;20032;-76
2022/05/05 00:40:50;;;;;;;4.87;4.47;;;;;;;;;;12547173;28;20045;-76
2022/05/05 00:46:52;;;;;;;5.70;5.22;;;;;;;;;;12529562;28;20048;-76
2022/05/05 00:52:54;;;;;;;7.43;6.73;;;;;;;;;;12529024;28;20037;-76
2022/05/05 00:58:56;;;;;;;6.50;5.63;;;;;;;;;;12511853;28;20025;-77
2022/05/05 01:04:58;;;;;;;6.07;5.57;;;;;;;;;;12511747;28;20046;-77
2022/05/05 01:11:00;;;;;;;6.70;5.97;;;;;;;;;;12545984;28;20382;-77
2022/05/05 01:17:02;;;;;;;6.40;5.80;;;;;;;;;;12528229;28;20656;-77
2022/05/05 01:23:04;;;;;;;5.47;4.97;;;;;;;;;;12527495;28;20036;-78
2022/05/05 01:29:06;;;;;;;6.97;5.97;;;;;;;;;;12544325;28;20024;-78
2022/05/05 01:35:08;;;;;;;7.03;6.05;;;;;;;;;;12527861;28;20040;-77
2022/05/05 01:41:10;;;;;;;5.57;5.07;;;;;;;;;;12544686;28;20041;-78
2022/05/05 01:47:12;;;;;;;5.57;5.03;;;;;;;;;;12511038;28;20044;-78
2022/05/05 01:53:14;;;;;;;6.57;5.90;;;;;;;;;;12544110;28;20036;-77
2022/05/05 01:59:16;;;;;;;5.73;5.23;;;;;;;;;;12544254;28;20449;-78
2022/05/05 02:05:18;;;;;;;5.20;4.70;;;;;;;;;;12510904;28;20037;-78
2022/05/05 02:11:19;;;;;;;4.70;4.32;;;;;;;;;;12509688;28;20044;-78
2022/05/05 02:17:21;;;;;;;6.05;5.45;;;;;;;;;;12509646;28;20049;-77
2022/05/05 02:23:23;;;;;;;6.23;5.60;;;;;;;;;;12526139;28;20469;-78
2022/05/05 02:29:25;;;;;;;5.07;4.60;;;;;;;;;;12510391;28;20347;-78
2022/05/05 02:35:28;;;;;;;5.45;4.95;;;;;;;;;;12509522;28;20040;-78
2022/05/05 02:41:30;;;;;;;5.93;5.43;;;;;;;;;;12530111;28;20041;-78
2022/05/05 02:47:31;;;;;;;5.50;4.97;;;;;;;;;;12535748;28;20640;-78
2022/05/05 02:59:54;;;;;;;5.28;4.20;;;;;;;;;;12534254;28;20548;-76
2022/05/05 03:05:56;;;;;;;5.63;5.05;;;;;;;;;;12534162;28;20033;-77
2022/05/05 03:11:57;;;;;;;4.77;4.30;;;;;;;;;;12551640;28;20028;-77
2022/05/05 03:17:59;;;;;;;4.40;4.10;;;;;;;;;;12517081;28;20069;-77
2022/05/05 03:24:01;;;;;;;5.35;4.85;;;;;;;;;;12551102;28;20041;-77
2022/05/05 03:30:03;;;;;;;4.83;4.37;;;;;;;;;;12550690;28;20032;-77
2022/05/05 03:36:05;;;;;;;7.43;6.75;;;;;;;;;;12516136;28;20048;-77
2022/05/05 03:42:06;;;;;;;5.60;4.57;;;;;;;;;;12550123;28;20211;-77
2022/05/05 03:48:09;;;;;;;6.63;6.03;;;;;;;;;;12551174;28;20466;-77
2022/05/05 03:54:11;;;;;;;6.15;5.65;;;;;;;;;;12548624;28;20037;-78
2022/05/05 04:00:13;;;;;;;5.17;4.77;;;;;;;;;;12531137;28;20033;-76
2022/05/05 04:06:34;;;;;;;5.18;4.70;;;;;;;;;;12548275;28;20287;-77
2022/05/05 04:12:36;;;;;;;3.33;3.03;;;;;;;;;;12514612;28;20059;-78
2022/05/05 04:18:38;;;;;;;9.90;8.93;;;;;;;;;;12531822;28;20061;-77
2022/05/05 04:24:40;;;;;;;6.90;6.20;;;;;;;;;;12514182;28;20308;-77
2022/05/05 04:30:42;;;;;;;8.38;7.68;;;;;;;;;;12547752;28;20044;-77
2022/05/05 04:37:01;;;;;;;10.18;8.85;;;;;;;;;;12547557;28;20029;-78
2022/05/05 04:43:02;;;;;;;8.97;8.07;;;;;;;;;;12547146;28;20049;-77
2022/05/05 04:49:05;;;;;;;5.83;5.33;;;;;;;;;;12514353;28;20040;-76
2022/05/05 04:55:07;;;;;;;7.18;6.45;;;;;;;;;;12528796;28;20037;-77
2022/05/05 05:01:09;;;;;;;4.87;4.00;;;;;;;;;;12546197;28;20410;-77
2022/05/05 05:07:11;;;;;;;6.97;6.33;;;;;;;;;;12545595;28;20032;-77
2022/05/05 05:13:13;;;;;;;7.30;6.60;;;;;;;;;;12545987;28;20063;-77
2022/05/05 05:19:14;;;;;;;7.03;6.43;;;;;;;;;;12545748;28;20075;-77
2022/05/05 05:25:16;;;;;;;6.73;6.20;;;;;;;;;;12545023;28;20374;-76
2022/05/05 05:31:36;;;;;;;6.10;5.50;;;;;;;;;;12545371;28;20056;-75
2022/05/05 05:37:38;;;;;;;6.65;6.05;;;;;;;;;;12527130;28;20474;-76
2022/05/05 05:43:39;;;;;;;4.03;3.73;;;;;;;;;;12533445;28;20588;-76
2022/05/05 05:49:41;;;;;;;7.13;6.43;;;;;;;;;;12462625;28;20045;-75
2022/05/05 05:55:43;;;;;;;7.17;6.50;;;;;;;;;;12478876;28;20025;-76
2022/05/05 06:08:05;;;;;;;8.93;8.10;;;;;;;;;;12483778;28;20500;-77
2022/05/05 06:14:07;;;;;;;12.97;11.60;;;;;;;;;;12484450;28;20051;-77
2022/05/05 06:20:08;;;;;;;13.93;12.53;;;;;;;;;;12492351;28;20481;-77
2022/05/05 06:26:10;;;;;;;6.82;6.22;;;;;;;;;;12468759;28;20033;-80
2022/05/05 06:32:12;;;;;;;10.15;9.25;;;;;;;;;;12457778;28;20030;-78
2022/05/05 06:38:15;;;;;;;7.00;6.37;;;;;;;;;;12508025;28;20037;-79
2022/05/05 06:44:17;;;;;;;9.07;8.27;;;;;;;;;;12478730;28;20398;-78
2022/05/05 06:50:21;;;;;;;10.23;9.30;;;;;;;;;;12463888;28;20478;-79
2022/05/05 06:56:27;;;;;;;9.02;8.13;;;;;;;;;;12493946;28;20059;-78
2022/05/05 07:02:29;;;;;;;7.65;7.03;;;;;;;;;;12494834;28;20044;-76
2022/05/05 07:10:52;;;;;;;8.17;7.37;;;;;;;;;;12472839;28;20037;-77
2022/05/05 07:14:52;;;;;;;7.57;6.88;;;;;;;;;;12477573;28;20033;-80
2022/05/05 07:20:54;;;;;;;6.87;6.17;;;;;;;;;;12449592;28;20068;-82
2022/05/05 07:26:56;;;;;;;7.10;6.40;;;;;;;;;;12447253;28;20026;-80
2022/05/05 07:32:57;;;;;;;6.32;5.72;;;;;;;;;;12428634;28;20045;-78
2022/05/05 07:38:59;;;;;;;7.63;6.93;;;;;;;;;;12446311;28;20130;-79
2022/05/05 07:45:02;;;;;;;6.53;5.93;;;;;;;;;;12443087;28;20463;-79
2022/05/05 07:51:04;;;;;;;5.05;4.65;;;;;;;;;;12440385;28;20118;-79
2022/05/05 07:57:07;;;;;;;5.27;4.87;;;;;;;;;;12436026;28;20029;-78
2022/05/05 08:03:09;;;;;;;7.18;6.68;;;;;;;;;;12434310;28;20038;-78
2022/05/05 08:09:11;;;;;;;5.55;5.05;;;;;;;;;;12449719;28;20483;-78
2022/05/05 08:15:13;;;;;;;5.35;4.93;;;;;;;;;;12443595;28;20026;-79
2022/05/05 08:21:15;;;;;;;;;;;;;;;;;;12482204;28;20053;-79
2022/05/05 08:33:38;;;;;;;6.45;5.82;;;;;;;;;;12488352;28;20044;-79
2022/05/05 08:39:40;;;;;;;5.65;5.15;;;;;;;;;;12474402;28;20068;-79
2022/05/05 08:45:45;;;;;;;6.73;6.13;;;;;;;;;;12474417;28;20040;-79
2022/05/05 08:51:49;;;;;;;3.95;3.65;;;;;;;;;;12485259;28;20410;-79
2022/05/05 08:57:51;;;;;;;4.55;4.25;;;;;;;;;;12470820;28;20025;-79
2022/05/05 09:03:53;;;;;;;5.30;4.90;;;;;;;;;;12466162;28;20037;-79
2022/05/05 09:09:54;;;;;;;5.70;5.17;;;;;;;;;;12471682;28;20025;-79
2022/05/05 09:15:56;;;;;;;4.67;4.23;;;;;;;;;;12460043;28;20030;-79
2022/05/05 09:21:58;;;;;;;3.65;3.22;;;;;;;;;;12458829;28;20057;-78
2022/05/05 09:28:15;;;;;;;4.45;4.05;;;;;;;;;;12479477;28;20037;-78
2022/05/05 09:34:20;;;;;;;2.65;2.45;;;;;;;;;;12480247;28;20068;-80
2022/05/05 09:40:23;;;;;;;3.40;3.10;;;;;;;;;;12473373;28;20029;-79
2022/05/05 09:46:27;;;;;;;3.97;3.58;;;;;;;;;;12485047;28;20544;-77
2022/05/05 09:58:52;;;;;;;3.35;3.08;;;;;;;;;;12487399;28;20029;-79
2022/05/05 10:04:55;;;;;;;5.82;4.85;;;;;;;;;;12481618;28;20044;-78
2022/05/05 10:10:57;;;;;;;3.15;2.85;;;;;;;;;;12452253;28;20041;-78
2022/05/05 10:17:02;;;;;;;3.63;3.33;;;;;;;;;;12465404;28;20461;-78
2022/05/05 10:23:09;;;;;;;4.18;3.88;;;;;;;;;;12469452;28;20037;-78
2022/05/05 10:29:31;;;;;;;3.80;3.42;;;;;;;;;;12487145;28;20033;-78
2022/05/05 10:35:45;;;;;;;4.22;3.92;;;;;;;;;;12469124;28;20030;-78
2022/05/05 10:41:51;;;;;;;3.58;3.28;;;;;;;;;;12484580;28;20104;-78
2022/05/05 10:47:54;;;;;;;3.25;3.05;;;;;;;;;;12472260;28;20029;-79
2022/05/05 10:54:16;;;;;;;3.45;3.15;;;;;;;;;;12466680;28;20048;-78
2022/05/05 11:00:22;;;;;;;2.93;2.73;;;;;;;;;;12464772;28;20038;-78
2022/05/05 11:06:28;;;;;;;10.23;5.25;;;;;;;;;;12480043;28;20041;-78
2022/05/05 11:12:33;;;;;;;3.97;3.67;;;;;;;;;;12489350;28;20038;-79
2022/05/05 11:25:09;;;;;;;3.67;3.00;;;;;;;;;;12492160;28;20041;-79
2022/05/05 11:31:19;;;;;;;5.28;4.80;;;;;;;;;;12485793;28;20489;-79
2022/05/05 11:37:21;;;;;;;4.75;4.30;;;;;;;;;;12480084;28;20481;-80
2022/05/05 11:49:46;;;;;;;4.45;4.05;;;;;;;;;;12475095;28;20044;-79
2022/05/05 11:55:53;;;;;;;8.93;3.53;;;;;;;;;;12476559;28;20557;-80
2022/05/05 12:01:59;;;;;;;3.72;3.10;;;;;;;;;;12475174;28;20048;-80
2022/05/05 12:08:01;;;;;;;3.50;3.20;;;;;;;;;;12458183;28;20037;-79
2022/05/05 12:14:06;;;;;;;2.67;2.47;;;;;;;;;;12484655;28;20516;-79
2022/05/05 12:20:09;;;;;;;2.47;2.28;;;;;;;;;;12491519;28;20045;-80
2022/05/05 12:26:11;;;;;;;2.50;2.30;;;;;;;;;;12468522;28;20045;-80
2022/05/05 12:32:15;;;;;;;3.28;3.00;;;;;;;;;;12471240;28;20052;-79
2022/05/05 12:38:17;;;;;;;2.83;2.63;;;;;;;;;;12489247;28;20479;-79
2022/05/05 12:44:20;;;;;;;2.80;2.60;;;;;;;;;;12490810;28;20056;-80
2022/05/05 12:50:32;;;;;;;2.97;2.78;;;;;;;;;;12495957;28;20030;-80
2022/05/05 13:02:55;;;;;;;3.03;2.83;;;;;;;;;;12492128;28;20493;-81
2022/05/05 13:08:57;;;;;;;3.15;2.90;;;;;;;;;;12469770;28;20497;-81
2022/05/05 13:14:59;;;;;;;2.88;2.67;;;;;;;;;;12483632;28;20030;-81
2022/05/05 13:21:00;;;;;;;3.05;2.85;;;;;;;;;;12471082;28;20490;-80
2022/05/05 13:27:02;;;;;;;3.13;2.78;;;;;;;;;;12469943;28;20029;-79
2022/05/05 13:33:04;;;;;;;3.25;2.88;;;;;;;;;;12474028;28;20033;-80
2022/05/05 13:39:06;;;;;;;2.57;2.47;;;;;;;;;;12473290;28;20572;-80
2022/05/05 13:45:08;;;;;;;4.90;4.50;;;;;;;;;;12449861;28;20287;-80
2022/05/05 13:51:09;;;;;;;3.95;3.65;;;;;;;;;;12488752;28;20041;-80
2022/05/05 13:57:11;;;;;;;4.25;3.83;;;;;;;;;;12466899;28;20490;-77
2022/05/05 14:03:13;;;;;;;3.90;3.50;;;;;;;;;;12474137;28;20041;-77
2022/05/05 14:15:41;;;;;;;3.88;3.50;;;;;;;;;;12465614;28;20037;-76
2022/05/05 14:21:42;;;;;;;2.67;2.47;;;;;;;;;;12477074;28;20076;-77
2022/05/05 14:27:44;;;;;;;3.80;3.50;;;;;;;;;;12440667;28;20398;-78
2022/05/05 14:33:46;;;;;;;3.50;3.27;;;;;;;;;;12478180;28;20299;-77
2022/05/05 14:39:47;;;;;;;3.45;3.25;;;;;;;;;;12478940;28;20029;-77
2022/05/05 14:45:49;;;;;;;3.47;3.13;;;;;;;;;;12485385;28;20041;-76
2022/05/05 14:51:51;;;;;;;3.42;3.17;;;;;;;;;;12484665;28;20478;-77
2022/05/05 14:57:53;;;;;;;3.25;3.05;;;;;;;;;;12468384;28;20045;-77
2022/05/05 15:03:54;;;;;;;2.75;2.53;;;;;;;;;;12502285;28;20045;-77
2022/05/05 15:09:56;;;;;;;3.33;3.13;;;;;;;;;;12485258;28;20382;-77
2022/05/05 15:15:58;;;;;;;3.28;2.97;;;;;;;;;;12484589;28;20462;-77
2022/05/05 15:22:00;;;;;;;4.27;3.97;;;;;;;;;;12484029;28;20053;-77
2022/05/05 15:28:01;;;;;;;3.20;2.95;;;;;;;;;;12483860;28;20029;-77
2022/05/05 15:34:03;;;;;;;4.40;4.00;;;;;;;;;;12501006;28;20033;-77
2022/05/05 15:40:07;;;;;;;3.95;3.65;;;;;;;;;;12500733;28;20740;-77
2022/05/05 15:46:09;;;;;;;5.60;5.10;;;;;;;;;;12500150;28;20045;-77
2022/05/05 15:52:13;;;;;;;4.40;4.10;;;;;;;;;;12498947;28;20033;-78
2022/05/05 15:58:15;;;;;;;4.38;3.97;;;;;;;;;;12499604;28;20399;-77
2022/05/05 16:04:17;;;;;;;4.20;3.80;;;;;;;;;;12481348;28;20383;-77
2022/05/05 16:10:19;;;;;;;5.80;5.30;;;;;;;;;;12499143;28;20037;-78
2022/05/05 16:16:21;;;;;;;4.80;4.40;;;;;;;;;;12498840;28;20033;-77
2022/05/05 16:22:24;;;;;;;5.50;5.00;;;;;;;;;;12480683;28;20057;-77
2022/05/05 16:34:46;;;;;;;6.32;5.80;;;;;;;;;;12498173;28;20037;-77
2022/05/05 16:40:51;;;;;;;5.32;4.82;;;;;;;;;;12463957;28;20040;-77
2022/05/05 16:46:53;;;;;;;4.93;4.53;;;;;;;;;;12498605;28;20053;-77
2022/05/05 16:52:55;;;;;;;6.23;5.63;;;;;;;;;;12497476;28;20033;-77
2022/05/05 16:58:57;;;;;;;5.63;5.22;;;;;;;;;;12479751;28;20038;-76
2022/05/05 17:04:59;;;;;;;6.53;5.93;;;;;;;;;;12496833;28;20033;-76
2022/05/05 17:11:01;;;;;;;3.72;3.38;;;;;;;;;;12497204;28;20037;-76
2022/05/05 17:17:02;;;;;;;4.47;4.10;;;;;;;;;;12462581;28;20053;-76
2022/05/05 17:23:04;;;;;;;5.17;3.73;;;;;;;;;;12497256;28;20045;-77
2022/05/05 17:29:07;;;;;;;4.30;3.90;;;;;;;;;;12495670;28;20279;-76
2022/05/05 17:35:09;;;;;;;4.32;3.92;;;;;;;;;;12477727;28;20037;-76
2022/05/05 17:41:12;;;;;;;3.67;3.37;;;;;;;;;;12477954;28;20033;-76
2022/05/05 17:53:33;;;;;;;3.80;3.50;;;;;;;;;;12494932;28;20004;-75
2022/05/05 17:59:35;;;;;;;4.77;3.80;;;;;;;;;;12494640;28;20033;-77
2022/05/05 18:05:36;;;;;;;4.27;3.97;;;;;;;;;;12460467;28;20052;-76
2022/05/05 18:11:40;;;;;;;;;;;;;;;;;;12494471;28;20025;-76
2022/05/05 18:17:42;;;;;;;4.32;3.92;;;;;;;;;;12493181;28;20389;-77
2022/05/05 18:23:44;;;;;;;4.05;3.65;;;;;;;;;;12493179;28;20045;-76
2022/05/05 18:29:46;;;;;;;4.07;3.77;;;;;;;;;;12474891;28;20034;-78
2022/05/05 18:35:48;;;;;;;4.10;3.80;;;;;;;;;;12458198;28;20030;-80
2022/05/05 18:41:50;;;;;;;3.75;3.45;;;;;;;;;;12457457;28;20064;-82
2022/05/05 18:47:51;;;;;;;4.90;4.50;;;;;;;;;;12492851;28;20037;-77
2022/05/05 18:53:53;;;;;;;5.10;4.70;;;;;;;;;;12473938;28;20038;-79
2022/05/05 18:59:55;;;;;;;4.17;3.87;;;;;;;;;;12457515;28;20037;-82
2022/05/05 19:05:56;;;;;;;4.50;4.10;;;;;;;;;;12473429;28;20474;-81
2022/05/05 19:11:58;;;;;;;4.50;4.20;;;;;;;;;;12456566;28;20033;-81
2022/05/05 19:18:01;;;;;;;4.50;4.10;;;;;;;;;;12473394;28;20288;-78
2022/05/05 19:24:02;;;;;;;4.60;4.20;;;;;;;;;;12495934;28;20048;-78
2022/05/05 19:30:04;;;;;;;5.60;5.10;;;;;;;;;;12501507;28;20030;-79
2022/05/05 19:36:06;;;;;;;4.43;3.85;;;;;;;;;;12501112;28;20033;-82
2022/05/05 19:42:08;;;;;;;3.35;3.08;;;;;;;;;;12484410;28;20049;-81
2022/05/05 19:48:10;;;;;;;4.88;4.47;;;;;;;;;;12483913;28;20034;-80
2022/05/05 19:54:12;;;;;;;5.50;5.07;;;;;;;;;;12500551;28;20048;-79
2022/05/05 20:12:55;;;;;;;4.93;4.50;;;;;;;;;;12482026;28;20390;-78
2022/05/05 20:18:59;;;;;;;7.47;4.67;;;;;;;;;;12499560;28;20045;-80
2022/05/05 20:25:00;;;;;;;4.00;3.67;;;;;;;;;;12465527;28;20045;-78
2022/05/05 20:31:03;;;;;;;4.93;4.53;;;;;;;;;;12499147;28;20046;-79
2022/05/05 20:37:04;;;;;;;4.38;4.03;;;;;;;;;;12497798;28;20052;-75
2022/05/05 20:43:07;;;;;;;4.17;3.80;;;;;;;;;;12480775;28;20041;-80
2022/05/05 20:49:09;;;;;;;4.80;4.40;;;;;;;;;;12480913;28;20505;-78
2022/05/05 20:55:11;;;;;;;5.27;4.87;;;;;;;;;;12480124;28;20042;-76
2022/05/05 21:01:12;;;;;;;5.07;4.57;;;;;;;;;;12498068;28;20037;-77
2022/05/05 21:07:14;;;;;;;4.83;4.43;;;;;;;;;;12463677;28;20049;-78
2022/05/05 21:13:16;;;;;;;7.10;5.37;;;;;;;;;;12496572;28;20033;-80
2022/05/05 21:19:18;;;;;;;4.30;3.97;;;;;;;;;;12497107;28;20414;-80
2022/05/05 21:25:34;;;;;;;5.20;4.70;;;;;;;;;;12462301;28;20054;-79
2022/05/05 21:31:36;;;;;;;4.78;4.22;;;;;;;;;;12461803;28;20033;-80
2022/05/05 21:37:37;;;;;;;4.20;3.90;;;;;;;;;;12478183;28;20029;-79
2022/05/05 21:43:41;;;;;;;3.40;3.10;;;;;;;;;;12461692;28;20044;-80
2022/05/05 21:49:43;;;;;;;2.50;2.30;;;;;;;;;;12496241;28;20033;-80
2022/05/05 21:55:48;;;;;;;6.00;5.50;;;;;;;;;;12477507;28;20371;-79
2022/05/05 22:01:50;;;;;;;4.45;4.10;;;;;;;;;;12494689;28;20037;-80
2022/05/05 22:07:52;;;;;;;5.70;5.20;;;;;;;;;;12494890;28;20046;-79
2022/05/05 22:13:53;;;;;;;4.18;3.78;;;;;;;;;;12476920;28;20478;-79
2022/05/05 22:19:58;;;;;;;4.47;3.70;;;;;;;;;;12477593;28;20410;-80
2022/05/05 22:26:00;;;;;;;4.35;3.65;;;;;;;;;;12476470;28;20038;-80
2022/05/05 22:32:03;;;;;;;4.47;4.07;;;;;;;;;;12494696;28;20041;-80
2022/05/05 22:38:06;;;;;;;3.72;3.42;;;;;;;;;;12476934;28;20037;-80
2022/05/05 22:44:07;;;;;;;4.95;3.83;;;;;;;;;;12476630;28;20052;-80
2022/05/05 22:50:27;;;;;;;4.20;3.90;;;;;;;;;;12477117;28;20161;-80
2022/05/05 22:56:29;;;;;;;3.42;3.13;;;;;;;;;;12477480;28;20501;-80
2022/05/05 23:02:31;;;;;;;3.40;3.20;;;;;;;;;;12485196;28;20487;-80
2022/05/05 23:08:33;;;;;;;4.27;3.97;;;;;;;;;;12484978;28;20034;-80
2022/05/05 23:14:35;;;;;;;2.87;2.67;;;;;;;;;;12468595;28;20029;-80
2022/05/05 23:20:37;;;;;;;3.43;3.20;;;;;;;;;;12485452;28;20049;-80
2022/05/05 23:26:39;;;;;;;2.88;2.67;;;;;;;;;;12483693;28;20041;-79
2022/05/05 23:32:41;;;;;;;3.03;2.70;;;;;;;;;;12501877;28;20033;-80
2022/05/05 23:38:43;;;;;;;2.53;2.30;;;;;;;;;;12467595;28;20034;-80
2022/05/05 23:44:44;;;;;;;3.03;2.73;;;;;;;;;;12467273;28;20048;-81
2022/05/05 23:50:46;;;;;;;2.97;2.77;;;;;;;;;;12467050;28;20034;-80
2022/05/05 23:56:50;;;;;;;2.83;2.63;;;;;;;;;;12482767;28;20045;-80
